Frilaens III — LK8780 — position and weather

sailwx.info

Track history (hours):
 
Tides and Currents Weather Stations Pressure Air Temp Water Temp Dewpoint Dewpoint Depression Visibility Wind Speed Wind Dir Waves Ship Positions

Frilaens III

Last reported at 2017-Sep-06 13:22 UTC. Time now 2017-Nov-21 10:13 UTC.
Position N 59°26' E 010°39'.
Warning: this ship's position is months out of date.

Length 12 m.

Type: Sailing vessel. MMSI: 257640790.

Date/timePositionNaut miles runAvg speedWind from/ knotsBaromVisibWave heightAir tempDewpointWater temp
2017-Sep-06 13:22N 59°26' E 010°39'0 0.0
2017-Sep-06 13:01N 59°26' E 010°39'18 5.5
2017-Sep-06 09:43N 59°08' E 010°47'1 6.6
2017-Sep-06 09:30N 59°07' E 010°48'82 1.7
2017-Sep-04 09:52N 57°49' E 011°37'3 6.7
2017-Sep-04 09:29N 57°46' E 011°39'3 6.6
2017-Sep-04 09:00N 57°43' E 011°40'3 5.8
2017-Sep-04 08:29N 57°41' E 011°43'4 0.3
2017-Sep-03 17:20N 57°40' E 011°51'  
2017-Sep-01 07:03N 55°42' E 012°36'0 5.0
2017-Sep-01 06:59N 55°42' E 012°36'0 0.0
2017-Aug-30 14:51N 55°42' E 012°36'1 2.3
2017-Aug-30 14:22N 55°42' E 012°38'1 1.6
2017-Aug-30 14:00N 55°41' E 012°37'2 5.0
2017-Aug-30 13:30N 55°40' E 012°40'3 6.2
2017-Aug-30 12:58N 55°36' E 012°42'3 6.0
2017-Aug-30 12:30N 55°34' E 012°41'  
Track history (hours):
 
Tides and Currents Weather Stations Pressure Air Temp Water Temp Dewpoint Dewpoint Depression Visibility Wind Speed Wind Dir Waves Ship Positions

Frilaens III

Last reported at 2017-Sep-06 13:22 UTC. Time now 2017-Nov-21 10:13 UTC.
Position N 59°26' E 010°39'.
Warning: this ship's position is months out of date.

Length 12 m.

Type: Sailing vessel. MMSI: 257640790.

Date/timePositionNaut miles runAvg speedWind from/ knotsBaromVisibWave heightAir tempDewpointWater temp
2017-Sep-06 13:22N 59°26' E 010°39'0 0.0
2017-Sep-06 13:01N 59°26' E 010°39'18 5.5
2017-Sep-06 09:43N 59°08' E 010°47'1 6.6
2017-Sep-06 09:30N 59°07' E 010°48'82 1.7
2017-Sep-04 09:52N 57°49' E 011°37'3 6.7
2017-Sep-04 09:29N 57°46' E 011°39'3 6.6
2017-Sep-04 09:00N 57°43' E 011°40'3 5.8
2017-Sep-04 08:29N 57°41' E 011°43'4 0.3
2017-Sep-03 17:20N 57°40' E 011°51'  
2017-Sep-01 07:03N 55°42' E 012°36'0 5.0
2017-Sep-01 06:59N 55°42' E 012°36'0 0.0
2017-Aug-30 14:51N 55°42' E 012°36'1 2.3
2017-Aug-30 14:22N 55°42' E 012°38'1 1.6
2017-Aug-30 14:00N 55°41' E 012°37'2 5.0
2017-Aug-30 13:30N 55°40' E 012°40'3 6.2
2017-Aug-30 12:58N 55°36' E 012°42'3 6.0
2017-Aug-30 12:30N 55°34' E 012°41'  

Dump ship's entire track history